sensor_id;sensor_type;location;lat;lon;timestamp;P1;durP1;ratioP1;P2;durP2;ratioP2
19191;SDS011;9728;48.194;16.346;2024-03-07T00:00:24;5.15;;;3.33;;
19191;SDS011;9728;48.194;16.346;2024-03-07T00:05:29;4.25;;;3.10;;
19191;SDS011;9728;48.194;16.346;2024-03-07T00:10:33;5.15;;;3.63;;
19191;SDS011;9728;48.194;16.346;2024-03-07T00:15:39;4.55;;;3.30;;
19191;SDS011;9728;48.194;16.346;2024-03-07T00:20:43;4.28;;;2.78;;
19191;SDS011;9728;48.194;16.346;2024-03-07T00:25:46;3.73;;;2.83;;
19191;SDS011;9728;48.194;16.346;2024-03-07T00:30:52;4.50;;;2.88;;
19191;SDS011;9728;48.194;16.346;2024-03-07T00:35:56;5.50;;;3.42;;
19191;SDS011;9728;48.194;16.346;2024-03-07T00:41:01;4.10;;;2.97;;
19191;SDS011;9728;48.194;16.346;2024-03-07T00:46:06;5.03;;;3.10;;
19191;SDS011;9728;48.194;16.346;2024-03-07T00:51:10;3.93;;;2.83;;
19191;SDS011;9728;48.194;16.346;2024-03-07T00:56:13;5.05;;;3.40;;
19191;SDS011;9728;48.194;16.346;2024-03-07T01:01:18;3.93;;;2.97;;
19191;SDS011;9728;48.194;16.346;2024-03-07T01:06:22;4.43;;;2.97;;
19191;SDS011;9728;48.194;16.346;2024-03-07T01:11:25;3.70;;;3.03;;
19191;SDS011;9728;48.194;16.346;2024-03-07T01:16:30;4.85;;;2.88;;
19191;SDS011;9728;48.194;16.346;2024-03-07T01:21:33;5.03;;;2.97;;
19191;SDS011;9728;48.194;16.346;2024-03-07T01:26:39;4.23;;;2.87;;
19191;SDS011;9728;48.194;16.346;2024-03-07T01:31:44;4.13;;;3.00;;
19191;SDS011;9728;48.194;16.346;2024-03-07T01:36:47;4.27;;;3.07;;
19191;SDS011;9728;48.194;16.346;2024-03-07T01:41:51;5.15;;;3.38;;
19191;SDS011;9728;48.194;16.346;2024-03-07T01:46:56;4.73;;;3.20;;
19191;SDS011;9728;48.194;16.346;2024-03-07T01:52:02;4.05;;;3.22;;
19191;SDS011;9728;48.194;16.346;2024-03-07T01:57:07;5.43;;;3.40;;
19191;SDS011;9728;48.194;16.346;2024-03-07T02:02:12;5.75;;;3.63;;
19191;SDS011;9728;48.194;16.346;2024-03-07T02:07:16;5.97;;;3.55;;
19191;SDS011;9728;48.194;16.346;2024-03-07T02:12:19;5.95;;;4.10;;
19191;SDS011;9728;48.194;16.346;2024-03-07T02:17:24;4.57;;;3.20;;
19191;SDS011;9728;48.194;16.346;2024-03-07T02:22:30;6.20;;;3.43;;
19191;SDS011;9728;48.194;16.346;2024-03-07T02:27:33;6.53;;;4.10;;
19191;SDS011;9728;48.194;16.346;2024-03-07T02:32:37;6.70;;;3.85;;
19191;SDS011;9728;48.194;16.346;2024-03-07T02:37:42;6.45;;;4.05;;
19191;SDS011;9728;48.194;16.346;2024-03-07T02:42:47;7.43;;;4.40;;
19191;SDS011;9728;48.194;16.346;2024-03-07T02:47:50;6.43;;;4.13;;
19191;SDS011;9728;48.194;16.346;2024-03-07T02:52:57;7.23;;;4.73;;
19191;SDS011;9728;48.194;16.346;2024-03-07T02:58:01;8.47;;;4.37;;
19191;SDS011;9728;48.194;16.346;2024-03-07T03:03:04;6.30;;;3.92;;
19191;SDS011;9728;48.194;16.346;2024-03-07T03:08:09;6.03;;;3.63;;
19191;SDS011;9728;48.194;16.346;2024-03-07T03:13:12;6.00;;;3.72;;
19191;SDS011;9728;48.194;16.346;2024-03-07T03:18:17;7.10;;;4.30;;
19191;SDS011;9728;48.194;16.346;2024-03-07T03:23:22;7.47;;;4.30;;
19191;SDS011;9728;48.194;16.346;2024-03-07T03:28:27;5.70;;;3.37;;
19191;SDS011;9728;48.194;16.346;2024-03-07T03:33:30;5.78;;;3.15;;
19191;SDS011;9728;48.194;16.346;2024-03-07T03:38:35;4.75;;;3.00;;
19191;SDS011;9728;48.194;16.346;2024-03-07T03:43:39;4.33;;;2.80;;
19191;SDS011;9728;48.194;16.346;2024-03-07T03:48:42;5.00;;;2.80;;
19191;SDS011;9728;48.194;16.346;2024-03-07T03:53:47;4.63;;;2.97;;
19191;SDS011;9728;48.194;16.346;2024-03-07T03:58:51;5.13;;;3.28;;
19191;SDS011;9728;48.194;16.346;2024-03-07T04:03:54;4.60;;;3.20;;
19191;SDS011;9728;48.194;16.346;2024-03-07T04:08:59;4.97;;;2.90;;
19191;SDS011;9728;48.194;16.346;2024-03-07T04:14:02;3.63;;;2.75;;
19191;SDS011;9728;48.194;16.346;2024-03-07T04:19:06;4.40;;;2.87;;
19191;SDS011;9728;48.194;16.346;2024-03-07T04:24:12;4.57;;;2.47;;
19191;SDS011;9728;48.194;16.346;2024-03-07T04:29:15;5.73;;;3.33;;
19191;SDS011;9728;48.194;16.346;2024-03-07T04:34:19;4.23;;;2.47;;
19191;SDS011;9728;48.194;16.346;2024-03-07T04:39:24;6.53;;;3.33;;
19191;SDS011;9728;48.194;16.346;2024-03-07T04:44:32;7.20;;;3.90;;
19191;SDS011;9728;48.194;16.346;2024-03-07T04:49:37;4.50;;;2.70;;
19191;SDS011;9728;48.194;16.346;2024-03-07T04:54:43;4.45;;;2.80;;
19191;SDS011;9728;48.194;16.346;2024-03-07T04:59:46;3.80;;;2.50;;
19191;SDS011;9728;48.194;16.346;2024-03-07T05:04:50;5.03;;;2.77;;
19191;SDS011;9728;48.194;16.346;2024-03-07T05:09:55;4.97;;;2.83;;
19191;SDS011;9728;48.194;16.346;2024-03-07T05:14:58;4.70;;;3.10;;
19191;SDS011;9728;48.194;16.346;2024-03-07T05:20:02;4.03;;;2.70;;
19191;SDS011;9728;48.194;16.346;2024-03-07T05:25:12;3.53;;;2.58;;
19191;SDS011;9728;48.194;16.346;2024-03-07T05:30:18;3.70;;;2.58;;
19191;SDS011;9728;48.194;16.346;2024-03-07T05:35:24;4.40;;;2.88;;
19191;SDS011;9728;48.194;16.346;2024-03-07T05:40:32;4.57;;;3.00;;
19191;SDS011;9728;48.194;16.346;2024-03-07T05:45:35;5.97;;;3.50;;
19191;SDS011;9728;48.194;16.346;2024-03-07T05:50:39;4.77;;;2.80;;
19191;SDS011;9728;48.194;16.346;2024-03-07T05:55:46;4.07;;;2.53;;
19191;SDS011;9728;48.194;16.346;2024-03-07T06:00:49;3.67;;;2.73;;
19191;SDS011;9728;48.194;16.346;2024-03-07T06:05:53;4.47;;;2.80;;
19191;SDS011;9728;48.194;16.346;2024-03-07T06:10:58;4.90;;;3.23;;
19191;SDS011;9728;48.194;16.346;2024-03-07T06:16:02;5.85;;;3.22;;
19191;SDS011;9728;48.194;16.346;2024-03-07T06:21:09;3.73;;;2.73;;
19191;SDS011;9728;48.194;16.346;2024-03-07T06:26:14;4.50;;;2.83;;
19191;SDS011;9728;48.194;16.346;2024-03-07T06:31:28;3.93;;;2.77;;
19191;SDS011;9728;48.194;16.346;2024-03-07T06:36:31;5.53;;;3.08;;
19191;SDS011;9728;48.194;16.346;2024-03-07T06:41:37;4.20;;;2.63;;
19191;SDS011;9728;48.194;16.346;2024-03-07T06:46:42;4.97;;;3.17;;
19191;SDS011;9728;48.194;16.346;2024-03-07T06:51:47;4.70;;;3.13;;
19191;SDS011;9728;48.194;16.346;2024-03-07T06:56:52;5.68;;;2.95;;
19191;SDS011;9728;48.194;16.346;2024-03-07T07:01:55;3.87;;;2.77;;
19191;SDS011;9728;48.194;16.346;2024-03-07T07:07:00;4.53;;;2.95;;
19191;SDS011;9728;48.194;16.346;2024-03-07T07:12:05;4.43;;;3.03;;
19191;SDS011;9728;48.194;16.346;2024-03-07T07:17:09;4.17;;;2.80;;
19191;SDS011;9728;48.194;16.346;2024-03-07T07:22:14;4.07;;;2.70;;
19191;SDS011;9728;48.194;16.346;2024-03-07T07:27:20;3.60;;;2.57;;
19191;SDS011;9728;48.194;16.346;2024-03-07T07:32:24;4.38;;;3.05;;
19191;SDS011;9728;48.194;16.346;2024-03-07T07:37:29;5.05;;;2.85;;
19191;SDS011;9728;48.194;16.346;2024-03-07T07:42:34;4.13;;;2.85;;
19191;SDS011;9728;48.194;16.346;2024-03-07T07:47:40;5.10;;;3.33;;
19191;SDS011;9728;48.194;16.346;2024-03-07T07:52:45;5.27;;;2.90;;
19191;SDS011;9728;48.194;16.346;2024-03-07T07:57:53;3.00;;;2.27;;
19191;SDS011;9728;48.194;16.346;2024-03-07T08:02:58;4.63;;;2.80;;
19191;SDS011;9728;48.194;16.346;2024-03-07T08:08:03;7.68;;;3.72;;
19191;SDS011;9728;48.194;16.346;2024-03-07T08:13:10;4.13;;;2.70;;
19191;SDS011;9728;48.194;16.346;2024-03-07T08:18:15;4.60;;;3.15;;
19191;SDS011;9728;48.194;16.346;2024-03-07T08:23:19;5.57;;;2.90;;
19191;SDS011;9728;48.194;16.346;2024-03-07T08:28:25;4.82;;;3.30;;
19191;SDS011;9728;48.194;16.346;2024-03-07T08:33:29;6.13;;;3.23;;
19191;SDS011;9728;48.194;16.346;2024-03-07T08:38:35;4.30;;;2.60;;
19191;SDS011;9728;48.194;16.346;2024-03-07T08:43:41;4.50;;;2.97;;
19191;SDS011;9728;48.194;16.346;2024-03-07T08:48:44;3.55;;;2.58;;
19191;SDS011;9728;48.194;16.346;2024-03-07T08:53:47;5.40;;;2.90;;
19191;SDS011;9728;48.194;16.346;2024-03-07T08:58:53;4.65;;;3.10;;
19191;SDS011;9728;48.194;16.346;2024-03-07T09:03:56;5.43;;;3.35;;
19191;SDS011;9728;48.194;16.346;2024-03-07T09:09:01;4.32;;;2.78;;
19191;SDS011;9728;48.194;16.346;2024-03-07T09:14:06;4.50;;;3.40;;
19191;SDS011;9728;48.194;16.346;2024-03-07T09:19:11;5.53;;;3.55;;
19191;SDS011;9728;48.194;16.346;2024-03-07T09:24:15;5.20;;;3.28;;
19191;SDS011;9728;48.194;16.346;2024-03-07T09:29:20;5.05;;;3.10;;
19191;SDS011;9728;48.194;16.346;2024-03-07T09:34:24;7.00;;;3.80;;
19191;SDS011;9728;48.194;16.346;2024-03-07T09:39:28;4.47;;;2.60;;
19191;SDS011;9728;48.194;16.346;2024-03-07T09:44:34;7.13;;;3.55;;
19191;SDS011;9728;48.194;16.346;2024-03-07T09:49:41;5.05;;;3.03;;
19191;SDS011;9728;48.194;16.346;2024-03-07T09:54:45;5.75;;;3.47;;
19191;SDS011;9728;48.194;16.346;2024-03-07T09:59:50;5.63;;;3.33;;
19191;SDS011;9728;48.194;16.346;2024-03-07T10:04:56;5.95;;;3.67;;
19191;SDS011;9728;48.194;16.346;2024-03-07T10:10:00;6.65;;;4.45;;
19191;SDS011;9728;48.194;16.346;2024-03-07T10:15:13;7.35;;;3.53;;
19191;SDS011;9728;48.194;16.346;2024-03-07T10:20:19;8.57;;;5.07;;
19191;SDS011;9728;48.194;16.346;2024-03-07T10:25:24;7.80;;;4.60;;
19191;SDS011;9728;48.194;16.346;2024-03-07T10:30:34;7.47;;;4.00;;
19191;SDS011;9728;48.194;16.346;2024-03-07T10:35:42;7.75;;;4.70;;
19191;SDS011;9728;48.194;16.346;2024-03-07T10:40:52;9.02;;;4.95;;
19191;SDS011;9728;48.194;16.346;2024-03-07T10:45:58;8.70;;;4.28;;
19191;SDS011;9728;48.194;16.346;2024-03-07T10:51:11;8.75;;;5.47;;
19191;SDS011;9728;48.194;16.346;2024-03-07T10:56:31;6.55;;;4.30;;
19191;SDS011;9728;48.194;16.346;2024-03-07T11:01:49;7.85;;;4.38;;
19191;SDS011;9728;48.194;16.346;2024-03-07T11:06:59;6.28;;;4.30;;
19191;SDS011;9728;48.194;16.346;2024-03-07T11:12:03;8.80;;;3.83;;
19191;SDS011;9728;48.194;16.346;2024-03-07T11:17:10;7.00;;;4.13;;
19191;SDS011;9728;48.194;16.346;2024-03-07T11:22:28;7.93;;;4.45;;
19191;SDS011;9728;48.194;16.346;2024-03-07T11:27:33;7.15;;;4.22;;
19191;SDS011;9728;48.194;16.346;2024-03-07T11:32:42;6.72;;;4.07;;
19191;SDS011;9728;48.194;16.346;2024-03-07T11:37:47;8.10;;;4.60;;
19191;SDS011;9728;48.194;16.346;2024-03-07T11:42:51;8.07;;;4.15;;
19191;SDS011;9728;48.194;16.346;2024-03-07T11:47:59;7.28;;;4.20;;
19191;SDS011;9728;48.194;16.346;2024-03-07T11:53:12;8.30;;;5.13;;
19191;SDS011;9728;48.194;16.346;2024-03-07T11:58:16;8.50;;;4.15;;
19191;SDS011;9728;48.194;16.346;2024-03-07T12:03:24;10.20;;;4.75;;
19191;SDS011;9728;48.194;16.346;2024-03-07T12:08:30;8.32;;;5.35;;
19191;SDS011;9728;48.194;16.346;2024-03-07T12:13:33;9.40;;;5.50;;
19191;SDS011;9728;48.194;16.346;2024-03-07T12:18:39;7.05;;;4.25;;
19191;SDS011;9728;48.194;16.346;2024-03-07T12:23:43;9.90;;;5.05;;
19191;SDS011;9728;48.194;16.346;2024-03-07T12:28:48;6.50;;;4.65;;
19191;SDS011;9728;48.194;16.346;2024-03-07T12:33:54;9.95;;;6.03;;
19191;SDS011;9728;48.194;16.346;2024-03-07T12:38:57;9.75;;;5.32;;
19191;SDS011;9728;48.194;16.346;2024-03-07T12:44:05;8.32;;;4.93;;
19191;SDS011;9728;48.194;16.346;2024-03-07T12:49:14;10.75;;;5.57;;
19191;SDS011;9728;48.194;16.346;2024-03-07T12:54:18;11.00;;;6.05;;
19191;SDS011;9728;48.194;16.346;2024-03-07T12:59:21;11.13;;;6.68;;
19191;SDS011;9728;48.194;16.346;2024-03-07T13:04:27;11.90;;;6.03;;
19191;SDS011;9728;48.194;16.346;2024-03-07T13:09:32;8.43;;;5.07;;
19191;SDS011;9728;48.194;16.346;2024-03-07T13:14:35;8.23;;;4.97;;
19191;SDS011;9728;48.194;16.346;2024-03-07T13:19:40;10.13;;;5.30;;
19191;SDS011;9728;48.194;16.346;2024-03-07T13:24:50;10.30;;;6.20;;
19191;SDS011;9728;48.194;16.346;2024-03-07T13:29:53;9.25;;;5.30;;
19191;SDS011;9728;48.194;16.346;2024-03-07T13:34:59;7.75;;;5.18;;
19191;SDS011;9728;48.194;16.346;2024-03-07T13:40:03;7.90;;;4.75;;
19191;SDS011;9728;48.194;16.346;2024-03-07T13:45:25;10.23;;;5.90;;
19191;SDS011;9728;48.194;16.346;2024-03-07T13:50:34;9.57;;;5.25;;
19191;SDS011;9728;48.194;16.346;2024-03-07T14:01:41;7.93;;;4.43;;
19191;SDS011;9728;48.194;16.346;2024-03-07T14:07:03;9.32;;;5.15;;
19191;SDS011;9728;48.194;16.346;2024-03-07T14:12:21;8.68;;;5.88;;
19191;SDS011;9728;48.194;16.346;2024-03-07T14:17:52;8.98;;;5.85;;
19191;SDS011;9728;48.194;16.346;2024-03-07T14:23:19;7.95;;;4.65;;
19191;SDS011;9728;48.194;16.346;2024-03-07T14:28:52;9.70;;;5.75;;
19191;SDS011;9728;48.194;16.346;2024-03-07T14:34:06;9.95;;;6.00;;
19191;SDS011;9728;48.194;16.346;2024-03-07T14:39:16;8.77;;;4.85;;
19191;SDS011;9728;48.194;16.346;2024-03-07T14:44:25;9.40;;;5.53;;
19191;SDS011;9728;48.194;16.346;2024-03-07T14:49:29;9.30;;;5.07;;
19191;SDS011;9728;48.194;16.346;2024-03-07T14:54:34;13.00;;;6.27;;
19191;SDS011;9728;48.194;16.346;2024-03-07T14:59:38;9.88;;;5.85;;
19191;SDS011;9728;48.194;16.346;2024-03-07T15:04:43;8.77;;;4.93;;
19191;SDS011;9728;48.194;16.346;2024-03-07T15:09:49;10.60;;;6.32;;
19191;SDS011;9728;48.194;16.346;2024-03-07T15:14:52;8.38;;;5.15;;
19191;SDS011;9728;48.194;16.346;2024-03-07T15:20:11;7.70;;;5.30;;
19191;SDS011;9728;48.194;16.346;2024-03-07T15:25:25;10.95;;;5.88;;
19191;SDS011;9728;48.194;16.346;2024-03-07T15:30:29;10.52;;;5.45;;
19191;SDS011;9728;48.194;16.346;2024-03-07T15:35:37;9.82;;;5.25;;
19191;SDS011;9728;48.194;16.346;2024-03-07T15:40:41;8.73;;;5.30;;
19191;SDS011;9728;48.194;16.346;2024-03-07T15:45:45;11.43;;;5.97;;
19191;SDS011;9728;48.194;16.346;2024-03-07T15:50:52;11.67;;;6.10;;
19191;SDS011;9728;48.194;16.346;2024-03-07T15:56:00;9.97;;;6.20;;
19191;SDS011;9728;48.194;16.346;2024-03-07T16:01:03;12.67;;;6.67;;
19191;SDS011;9728;48.194;16.346;2024-03-07T16:06:07;10.40;;;6.20;;
19191;SDS011;9728;48.194;16.346;2024-03-07T16:11:18;13.13;;;6.70;;
19191;SDS011;9728;48.194;16.346;2024-03-07T16:16:25;11.00;;;6.23;;
19191;SDS011;9728;48.194;16.346;2024-03-07T16:21:29;11.48;;;6.75;;
19191;SDS011;9728;48.194;16.346;2024-03-07T16:26:34;11.88;;;6.70;;
19191;SDS011;9728;48.194;16.346;2024-03-07T16:31:38;12.50;;;6.77;;
19191;SDS011;9728;48.194;16.346;2024-03-07T16:36:41;12.43;;;6.67;;
19191;SDS011;9728;48.194;16.346;2024-03-07T16:41:47;12.60;;;7.53;;
19191;SDS011;9728;48.194;16.346;2024-03-07T16:46:50;14.00;;;7.67;;
19191;SDS011;9728;48.194;16.346;2024-03-07T16:51:54;12.47;;;7.17;;
19191;SDS011;9728;48.194;16.346;2024-03-07T16:56:59;14.83;;;7.53;;
19191;SDS011;9728;48.194;16.346;2024-03-07T17:02:02;12.80;;;7.30;;
19191;SDS011;9728;48.194;16.346;2024-03-07T17:07:08;13.20;;;8.30;;
19191;SDS011;9728;48.194;16.346;2024-03-07T17:12:14;13.63;;;7.43;;
19191;SDS011;9728;48.194;16.346;2024-03-07T17:17:18;10.13;;;6.23;;
19191;SDS011;9728;48.194;16.346;2024-03-07T17:22:21;13.43;;;7.40;;
19191;SDS011;9728;48.194;16.346;2024-03-07T17:27:26;13.10;;;7.60;;
19191;SDS011;9728;48.194;16.346;2024-03-07T17:32:30;12.10;;;7.43;;
19191;SDS011;9728;48.194;16.346;2024-03-07T17:37:34;16.10;;;7.95;;
19191;SDS011;9728;48.194;16.346;2024-03-07T17:42:40;14.57;;;7.40;;
19191;SDS011;9728;48.194;16.346;2024-03-07T17:47:45;14.88;;;8.20;;
19191;SDS011;9728;48.194;16.346;2024-03-07T17:52:55;21.60;;;9.33;;
19191;SDS011;9728;48.194;16.346;2024-03-07T17:58:04;16.37;;;7.80;;
19191;SDS011;9728;48.194;16.346;2024-03-07T18:03:10;15.03;;;7.17;;
19191;SDS011;9728;48.194;16.346;2024-03-07T18:08:14;12.57;;;7.00;;
19191;SDS011;9728;48.194;16.346;2024-03-07T18:13:23;22.30;;;10.37;;
19191;SDS011;9728;48.194;16.346;2024-03-07T18:18:27;14.68;;;8.07;;
19191;SDS011;9728;48.194;16.346;2024-03-07T18:23:31;12.95;;;7.45;;
19191;SDS011;9728;48.194;16.346;2024-03-07T18:28:39;15.00;;;8.00;;
19191;SDS011;9728;48.194;16.346;2024-03-07T18:33:45;14.43;;;7.63;;
19191;SDS011;9728;48.194;16.346;2024-03-07T18:38:52;15.83;;;8.00;;
19191;SDS011;9728;48.194;16.346;2024-03-07T18:43:58;14.13;;;7.53;;
19191;SDS011;9728;48.194;16.346;2024-03-07T18:49:04;15.47;;;8.13;;
19191;SDS011;9728;48.194;16.346;2024-03-07T18:54:15;15.57;;;7.53;;
19191;SDS011;9728;48.194;16.346;2024-03-07T18:59:21;14.90;;;8.37;;
19191;SDS011;9728;48.194;16.346;2024-03-07T19:04:25;18.40;;;9.00;;
19191;SDS011;9728;48.194;16.346;2024-03-07T19:09:32;13.93;;;7.77;;
19191;SDS011;9728;48.194;16.346;2024-03-07T19:14:38;24.97;;;11.23;;
19191;SDS011;9728;48.194;16.346;2024-03-07T19:19:43;19.87;;;10.10;;
19191;SDS011;9728;48.194;16.346;2024-03-07T19:24:47;18.47;;;8.90;;
19191;SDS011;9728;48.194;16.346;2024-03-07T19:29:53;18.53;;;9.33;;
19191;SDS011;9728;48.194;16.346;2024-03-07T19:34:59;16.33;;;8.67;;
19191;SDS011;9728;48.194;16.346;2024-03-07T19:40:03;18.87;;;9.17;;
19191;SDS011;9728;48.194;16.346;2024-03-07T19:45:09;14.97;;;7.47;;
19191;SDS011;9728;48.194;16.346;2024-03-07T19:50:15;18.53;;;8.43;;
19191;SDS011;9728;48.194;16.346;2024-03-07T19:55:19;18.77;;;8.67;;
19191;SDS011;9728;48.194;16.346;2024-03-07T20:00:25;17.67;;;9.40;;
19191;SDS011;9728;48.194;16.346;2024-03-07T20:05:33;16.33;;;7.93;;
19191;SDS011;9728;48.194;16.346;2024-03-07T20:10:38;16.30;;;9.23;;
19191;SDS011;9728;48.194;16.346;2024-03-07T20:15:45;14.15;;;7.30;;
19191;SDS011;9728;48.194;16.346;2024-03-07T20:20:50;17.63;;;9.00;;
19191;SDS011;9728;48.194;16.346;2024-03-07T20:25:54;16.33;;;8.37;;
19191;SDS011;9728;48.194;16.346;2024-03-07T20:31:00;13.30;;;7.53;;
19191;SDS011;9728;48.194;16.346;2024-03-07T20:36:04;15.30;;;7.83;;
19191;SDS011;9728;48.194;16.346;2024-03-07T20:41:11;17.13;;;8.07;;
19191;SDS011;9728;48.194;16.346;2024-03-07T20:46:16;18.60;;;9.47;;
19191;SDS011;9728;48.194;16.346;2024-03-07T20:51:23;18.13;;;9.03;;
19191;SDS011;9728;48.194;16.346;2024-03-07T20:56:31;14.53;;;8.20;;
19191;SDS011;9728;48.194;16.346;2024-03-07T21:01:37;12.40;;;5.93;;
19191;SDS011;9728;48.194;16.346;2024-03-07T21:06:45;16.07;;;7.20;;
19191;SDS011;9728;48.194;16.346;2024-03-07T21:11:49;16.37;;;8.13;;
19191;SDS011;9728;48.194;16.346;2024-03-07T21:16:57;15.00;;;7.83;;
19191;SDS011;9728;48.194;16.346;2024-03-07T21:22:00;12.07;;;6.43;;
19191;SDS011;9728;48.194;16.346;2024-03-07T21:27:04;14.60;;;7.70;;
19191;SDS011;9728;48.194;16.346;2024-03-07T21:32:09;13.17;;;7.47;;
19191;SDS011;9728;48.194;16.346;2024-03-07T21:37:14;18.43;;;9.23;;
19191;SDS011;9728;48.194;16.346;2024-03-07T21:42:20;21.53;;;10.13;;
19191;SDS011;9728;48.194;16.346;2024-03-07T21:47:25;16.77;;;8.03;;
19191;SDS011;9728;48.194;16.346;2024-03-07T21:52:28;14.03;;;7.57;;
19191;SDS011;9728;48.194;16.346;2024-03-07T21:57:32;16.97;;;7.53;;
19191;SDS011;9728;48.194;16.346;2024-03-07T22:02:39;15.80;;;7.83;;
19191;SDS011;9728;48.194;16.346;2024-03-07T22:07:59;16.33;;;8.10;;
19191;SDS011;9728;48.194;16.346;2024-03-07T22:13:05;16.00;;;7.80;;
19191;SDS011;9728;48.194;16.346;2024-03-07T22:18:12;18.07;;;9.37;;
19191;SDS011;9728;48.194;16.346;2024-03-07T22:23:16;17.83;;;9.07;;
19191;SDS011;9728;48.194;16.346;2024-03-07T22:28:20;16.27;;;8.13;;
19191;SDS011;9728;48.194;16.346;2024-03-07T22:33:24;17.13;;;8.47;;
19191;SDS011;9728;48.194;16.346;2024-03-07T22:38:30;13.10;;;7.43;;
19191;SDS011;9728;48.194;16.346;2024-03-07T22:43:35;14.77;;;7.60;;
19191;SDS011;9728;48.194;16.346;2024-03-07T22:48:39;15.50;;;8.43;;
19191;SDS011;9728;48.194;16.346;2024-03-07T22:53:43;17.70;;;8.77;;
19191;SDS011;9728;48.194;16.346;2024-03-07T22:58:47;17.03;;;8.73;;
19191;SDS011;9728;48.194;16.346;2024-03-07T23:03:52;16.97;;;8.53;;
19191;SDS011;9728;48.194;16.346;2024-03-07T23:08:56;15.20;;;8.03;;
19191;SDS011;9728;48.194;16.346;2024-03-07T23:14:00;16.57;;;7.33;;
19191;SDS011;9728;48.194;16.346;2024-03-07T23:19:06;16.73;;;8.93;;
19191;SDS011;9728;48.194;16.346;2024-03-07T23:24:13;15.83;;;7.37;;
19191;SDS011;9728;48.194;16.346;2024-03-07T23:29:16;13.10;;;7.03;;
19191;SDS011;9728;48.194;16.346;2024-03-07T23:34:21;15.93;;;8.00;;
19191;SDS011;9728;48.194;16.346;2024-03-07T23:39:25;15.10;;;7.70;;
19191;SDS011;9728;48.194;16.346;2024-03-07T23:44:29;14.87;;;7.43;;
19191;SDS011;9728;48.194;16.346;2024-03-07T23:49:34;14.43;;;7.40;;
19191;SDS011;9728;48.194;16.346;2024-03-07T23:54:37;13.87;;;7.50;;
19191;SDS011;9728;48.194;16.346;2024-03-07T23:59:40;15.83;;;7.60;;
